createdAt,value
2019-06-27T00:01:23.142Z,54.00
2019-06-27T00:03:52.700Z,53.50
2019-06-27T00:06:22.194Z,53.90
2019-06-27T00:08:51.250Z,54.90
2019-06-27T00:11:20.864Z,55.30
2019-06-27T00:13:50.284Z,55.60
2019-06-27T00:16:20.618Z,57.00
2019-06-27T00:18:50.298Z,56.30
2019-06-27T00:21:19.763Z,56.70
2019-06-27T00:23:49.145Z,55.60
2019-06-27T00:26:18.635Z,56.00
2019-06-27T00:28:48.337Z,55.30
2019-06-27T00:31:17.675Z,55.20
2019-06-27T00:33:48.798Z,55.10
2019-06-27T00:36:18.181Z,56.00
2019-06-27T00:38:47.553Z,55.30
2019-06-27T00:41:17.209Z,55.60
2019-06-27T00:43:47.565Z,54.60
2019-06-27T00:46:16.843Z,54.50
2019-06-27T00:48:46.432Z,56.10
2019-06-27T00:51:15.911Z,56.50
2019-06-27T00:53:45.357Z,56.30
2019-06-27T00:56:14.882Z,56.00
2019-06-27T00:58:44.259Z,55.60
2019-06-27T01:01:13.883Z,56.00
2019-06-27T01:03:43.594Z,56.80
2019-06-27T01:06:12.372Z,55.50
2019-06-27T01:08:42.539Z,56.20
2019-06-27T01:11:12.065Z,56.00
2019-06-27T01:13:41.601Z,55.70
2019-06-27T01:16:11.294Z,55.10
2019-06-27T01:18:41.278Z,55.70
2019-06-27T01:21:10.764Z,55.60
2019-06-27T01:23:40.135Z,55.50
2019-06-27T01:26:09.996Z,54.40
2019-06-27T01:28:39.602Z,55.40
2019-06-27T01:31:09.160Z,55.40
2019-06-27T01:33:38.488Z,57.90
2019-06-27T01:36:08.442Z,57.60
2019-06-27T01:38:38.143Z,56.50
2019-06-27T01:41:07.683Z,57.10
2019-06-27T01:43:37.796Z,56.80
2019-06-27T01:46:06.957Z,56.80
2019-06-27T01:48:36.682Z,57.40
2019-06-27T01:51:06.433Z,57.60
2019-06-27T01:53:35.747Z,59.80
2019-06-27T01:56:05.452Z,59.40
2019-06-27T01:58:35.932Z,60.20
2019-06-27T02:01:06.246Z,60.10
2019-06-27T02:03:35.430Z,59.10
2019-06-27T02:06:04.707Z,60.20
2019-06-27T02:08:33.877Z,60.00
2019-06-27T02:11:02.968Z,60.90
2019-06-27T02:13:32.403Z,60.10
2019-06-27T02:16:02.692Z,59.80
2019-06-27T02:18:32.340Z,59.80
2019-06-27T02:21:02.042Z,60.80
2019-06-27T02:23:31.565Z,60.80
2019-06-27T02:26:01.184Z,59.50
2019-06-27T02:28:30.566Z,59.50
2019-06-27T02:30:59.820Z,59.90
2019-06-27T02:33:29.210Z,60.10
2019-06-27T02:35:58.841Z,60.00
2019-06-27T02:38:28.374Z,59.90
2019-06-27T02:40:58.853Z,60.40
2019-06-27T02:43:27.589Z,60.00
2019-06-27T02:45:57.234Z,60.70
2019-06-27T02:48:26.571Z,61.40
2019-06-27T02:50:56.842Z,64.30
2019-06-27T02:53:26.406Z,64.20
2019-06-27T02:55:56.493Z,67.50
2019-06-27T02:58:31.366Z,67.50
2019-06-27T03:00:55.564Z,70.50
2019-06-27T03:03:25.695Z,73.60
2019-06-27T03:05:56.011Z,73.60
2019-06-27T03:08:25.531Z,74.00
2019-06-27T03:10:54.897Z,76.40
2019-06-27T03:13:25.028Z,72.30
2019-06-27T03:15:54.751Z,72.20
2019-06-27T03:18:24.536Z,69.30
2019-06-27T03:20:53.967Z,68.60
2019-06-27T03:23:23.383Z,69.40
2019-06-27T03:25:53.004Z,70.30
2019-06-27T03:28:22.551Z,71.00
2019-06-27T03:30:51.941Z,70.90
2019-06-27T03:33:21.544Z,71.60
2019-06-27T03:35:51.058Z,71.40
2019-06-27T03:38:20.437Z,71.30
2019-06-27T03:40:51.326Z,71.80
2019-06-27T03:43:20.851Z,71.40
2019-06-27T03:45:50.451Z,71.70
2019-06-27T03:48:20.125Z,72.00
2019-06-27T03:50:49.662Z,73.60
2019-06-27T03:53:19.027Z,76.10
2019-06-27T03:55:48.344Z,76.70
2019-06-27T03:58:17.768Z,76.60
2019-06-27T04:00:48.410Z,82.90
2019-06-27T04:03:17.893Z,82.80
2019-06-27T04:05:47.849Z,89.30
2019-06-27T04:08:17.479Z,89.30
2019-06-27T04:10:46.852Z,92.10
2019-06-27T04:13:16.357Z,95.20
2019-06-27T04:15:45.763Z,97.30
2019-06-27T04:18:15.225Z,99.80
2019-06-27T04:20:44.935Z,99.90
2019-06-27T04:23:14.237Z,99.90
2019-06-27T04:25:43.679Z,99.90
2019-06-27T04:28:13.381Z,99.90
2019-06-27T04:30:42.705Z,99.90
2019-06-27T04:33:12.042Z,99.90
2019-06-27T04:35:41.310Z,99.90
2019-06-27T04:38:10.606Z,99.90
2019-06-27T04:40:39.894Z,99.90
2019-06-27T04:43:09.628Z,99.90
2019-06-27T04:45:39.197Z,99.90
2019-06-27T04:48:08.897Z,99.90
2019-06-27T04:50:38.744Z,99.90
2019-06-27T04:53:08.263Z,99.90
2019-06-27T04:55:37.449Z,99.90
2019-06-27T04:58:06.857Z,99.90
2019-06-27T05:00:37.365Z,99.90
2019-06-27T05:03:06.702Z,99.90
2019-06-27T05:05:35.962Z,99.90
2019-06-27T05:08:05.405Z,99.90
2019-06-27T05:10:35.143Z,99.90
2019-06-27T05:13:04.477Z,99.90
2019-06-27T05:15:34.866Z,99.90
2019-06-27T05:18:04.333Z,99.90
2019-06-27T05:20:33.823Z,99.90
2019-06-27T05:23:04.347Z,99.90
2019-06-27T05:25:33.947Z,99.90
2019-06-27T05:28:03.401Z,99.90
2019-06-27T05:30:32.532Z,99.90
2019-06-27T05:33:02.229Z,99.90
2019-06-27T05:35:31.583Z,99.90
2019-06-27T05:38:00.972Z,99.90
2019-06-27T05:40:30.036Z,99.90
2019-06-27T05:42:59.450Z,99.90
2019-06-27T05:45:29.919Z,99.90
2019-06-27T05:47:59.355Z,99.90
2019-06-27T05:50:28.590Z,99.90
2019-06-27T05:52:58.012Z,99.90
2019-06-27T05:55:27.618Z,99.90
2019-06-27T05:57:57.317Z,99.90
2019-06-27T06:00:29.000Z,99.90
2019-06-27T06:02:56.219Z,99.90
2019-06-27T06:05:25.607Z,99.90
2019-06-27T06:07:56.329Z,99.90
2019-06-27T06:10:25.635Z,99.90
2019-06-27T06:12:55.137Z,99.90
2019-06-27T06:15:24.498Z,99.90
2019-06-27T06:17:53.867Z,99.90
2019-06-27T06:20:23.338Z,99.90
2019-06-27T06:22:52.689Z,99.90
2019-06-27T06:25:21.984Z,99.90
2019-06-27T06:27:51.564Z,99.90
2019-06-27T06:30:21.586Z,99.90
2019-06-27T06:32:51.104Z,99.90
2019-06-27T06:35:20.408Z,99.90
2019-06-27T06:37:49.776Z,99.90
2019-06-27T06:40:19.285Z,99.90
2019-06-27T06:42:48.733Z,99.90
2019-06-27T06:45:18.269Z,99.90
2019-06-27T06:47:49.050Z,99.90
2019-06-27T06:50:18.725Z,99.90
2019-06-27T06:52:48.183Z,99.90
2019-06-27T06:55:17.685Z,99.90
2019-06-27T06:57:46.847Z,99.90
2019-06-27T07:00:16.192Z,99.90
2019-06-27T07:02:45.644Z,99.90
2019-06-27T07:05:14.851Z,99.90
2019-06-27T07:07:43.935Z,99.90
2019-06-27T07:10:14.210Z,99.90
2019-06-27T07:12:43.748Z,99.90
2019-06-27T07:15:13.296Z,99.90
2019-06-27T07:17:43.117Z,99.90
2019-06-27T07:20:13.045Z,99.90
2019-06-27T07:22:42.306Z,99.90
2019-06-27T07:25:12.468Z,99.90
2019-06-27T07:27:41.736Z,99.90
2019-06-27T07:30:12.272Z,99.90
2019-06-27T07:32:41.562Z,99.90
2019-06-27T07:35:12.167Z,99.90
2019-06-27T07:37:41.621Z,99.90
2019-06-27T07:40:10.988Z,99.90
2019-06-27T07:42:40.518Z,99.90
2019-06-27T07:45:09.830Z,99.90
2019-06-27T07:47:39.412Z,99.90
2019-06-27T07:50:09.454Z,99.90
2019-06-27T07:52:39.924Z,99.90
2019-06-27T07:55:09.417Z,99.90
2019-06-27T07:57:38.920Z,99.90
2019-06-27T08:00:08.319Z,99.90
2019-06-27T08:02:37.755Z,99.90
2019-06-27T08:05:08.496Z,99.90
2019-06-27T08:07:38.844Z,99.90
2019-06-27T08:10:09.023Z,99.90
2019-06-27T08:12:42.124Z,99.90
2019-06-27T08:15:09.313Z,99.90
2019-06-27T08:17:38.820Z,99.90
2019-06-27T08:20:08.361Z,99.90
2019-06-27T08:22:37.610Z,99.90
2019-06-27T08:25:07.417Z,99.90
2019-06-27T08:27:37.908Z,99.90
2019-06-27T08:30:08.985Z,99.90
2019-06-27T08:32:38.689Z,99.90
2019-06-27T08:35:08.295Z,99.90
2019-06-27T08:37:37.590Z,99.90
2019-06-27T08:40:07.223Z,99.90
2019-06-27T08:42:36.648Z,99.90
2019-06-27T08:45:06.251Z,99.90
2019-06-27T08:47:35.892Z,99.90
2019-06-27T08:50:06.312Z,99.90
2019-06-27T08:52:41.573Z,99.90
2019-06-27T08:55:10.999Z,99.90
2019-06-27T08:57:40.836Z,99.90
2019-06-27T09:00:11.427Z,99.90
2019-06-27T09:02:40.670Z,99.90
2019-06-27T09:05:10.742Z,99.90
2019-06-27T09:07:40.161Z,99.90
2019-06-27T09:10:09.630Z,99.90
2019-06-27T09:12:39.219Z,99.90
2019-06-27T09:15:08.812Z,99.90
2019-06-27T09:17:38.548Z,99.90
2019-06-27T09:20:09.608Z,99.90
2019-06-27T09:22:39.005Z,99.90
2019-06-27T09:25:08.526Z,99.90
2019-06-27T09:27:38.005Z,99.90
2019-06-27T09:30:08.723Z,99.90
2019-06-27T09:32:38.325Z,99.90
2019-06-27T09:35:08.105Z,99.90
2019-06-27T09:37:37.234Z,99.90
2019-06-27T09:40:08.870Z,99.90
2019-06-27T09:42:38.465Z,99.90
2019-06-27T09:45:07.723Z,99.90
2019-06-27T09:47:37.258Z,99.90
2019-06-27T09:50:06.829Z,99.90
2019-06-27T09:52:36.099Z,99.90
2019-06-27T09:55:07.664Z,99.90
2019-06-27T09:57:36.927Z,99.90
2019-06-27T10:00:08.471Z,99.90
2019-06-27T10:02:42.121Z,99.90
2019-06-27T10:05:07.802Z,99.90
2019-06-27T10:07:37.342Z,99.90
2019-06-27T10:10:06.912Z,99.90
2019-06-27T10:12:42.127Z,99.90
2019-06-27T10:15:09.438Z,99.90
2019-06-27T10:17:38.847Z,99.90
2019-06-27T10:20:08.648Z,99.90
2019-06-27T10:22:38.085Z,99.90
2019-06-27T10:25:07.841Z,99.90
2019-06-27T10:27:37.024Z,99.90
2019-06-27T10:30:06.654Z,99.90
2019-06-27T10:32:36.099Z,99.90
2019-06-27T10:35:05.969Z,99.90
2019-06-27T10:37:36.523Z,99.90
2019-06-27T10:40:06.427Z,99.90
2019-06-27T10:42:35.923Z,99.90
2019-06-27T10:45:05.878Z,99.90
2019-06-27T10:47:35.254Z,99.90
2019-06-27T10:50:05.134Z,99.90
2019-06-27T10:52:34.601Z,99.90
2019-06-27T10:55:04.493Z,99.90
2019-06-27T10:57:34.699Z,99.90
2019-06-27T11:00:04.898Z,99.90
2019-06-27T11:02:34.473Z,99.90
2019-06-27T11:05:03.858Z,99.90
2019-06-27T11:07:33.095Z,99.90
2019-06-27T11:10:02.556Z,99.90
2019-06-27T11:12:32.063Z,99.90
2019-06-27T11:15:01.412Z,99.90
2019-06-27T11:17:30.841Z,99.90
2019-06-27T11:20:01.046Z,99.90
2019-06-27T11:22:30.114Z,99.90
2019-06-27T11:24:59.358Z,99.90
2019-06-27T11:27:28.843Z,99.90
2019-06-27T11:29:58.349Z,99.90
2019-06-27T11:32:28.495Z,99.90
2019-06-27T11:34:58.856Z,99.90
2019-06-27T11:37:28.402Z,99.90
2019-06-27T11:39:58.682Z,99.90
2019-06-27T11:42:29.864Z,99.90
2019-06-27T11:44:58.502Z,99.90
2019-06-27T11:47:28.011Z,99.90
2019-06-27T11:49:57.505Z,99.90
2019-06-27T11:52:27.202Z,99.90
2019-06-27T11:54:57.284Z,99.90
2019-06-27T11:57:26.946Z,99.90
2019-06-27T11:59:56.767Z,99.90
2019-06-27T12:02:26.318Z,99.90
2019-06-27T12:04:56.421Z,99.90
2019-06-27T12:07:26.021Z,99.90
2019-06-27T12:09:55.271Z,99.90
2019-06-27T12:12:24.642Z,99.90
2019-06-27T12:14:54.147Z,99.90
2019-06-27T12:17:23.367Z,99.90
2019-06-27T12:19:52.431Z,99.90
2019-06-27T12:22:21.929Z,99.90
2019-06-27T12:24:51.606Z,99.90
2019-06-27T12:27:21.224Z,99.90
2019-06-27T12:29:50.428Z,99.90
2019-06-27T12:32:19.883Z,99.90
2019-06-27T12:34:49.598Z,99.90
2019-06-27T12:37:18.906Z,99.90
2019-06-27T12:39:49.192Z,99.90
2019-06-27T12:42:32.074Z,99.90
2019-06-27T12:44:48.510Z,99.90
2019-06-27T12:47:18.000Z,99.90
2019-06-27T12:50:01.418Z,99.90
2019-06-27T12:52:16.947Z,99.90
2019-06-27T12:54:46.022Z,99.90
2019-06-27T12:57:15.291Z,99.90
2019-06-27T12:59:44.572Z,99.90
2019-06-27T13:02:15.694Z,99.90
2019-06-27T13:04:44.791Z,99.90
2019-06-27T13:07:14.363Z,99.90
2019-06-27T13:09:43.721Z,99.90
2019-06-27T13:12:13.005Z,99.90
2019-06-27T13:14:42.409Z,99.90
2019-06-27T13:17:12.665Z,99.90
2019-06-27T13:19:42.087Z,99.90
2019-06-27T13:22:11.313Z,99.90
2019-06-27T13:24:40.560Z,99.90
2019-06-27T13:27:10.058Z,99.90
2019-06-27T13:29:39.398Z,99.90
2019-06-27T13:32:09.041Z,99.90
2019-06-27T13:34:40.775Z,99.90
2019-06-27T13:37:09.136Z,99.90
2019-06-27T13:39:41.409Z,99.90
2019-06-27T13:42:10.982Z,99.90
2019-06-27T13:44:40.273Z,99.90
2019-06-27T13:47:09.970Z,99.90
2019-06-27T13:49:39.550Z,99.90
2019-06-27T13:52:08.894Z,99.90
2019-06-27T13:54:37.794Z,99.90
2019-06-27T13:57:07.360Z,99.90
2019-06-27T13:59:36.678Z,99.90
2019-06-27T14:02:06.057Z,99.90
2019-06-27T14:04:35.543Z,99.90
2019-06-27T14:07:04.790Z,99.90
2019-06-27T14:09:50.867Z,99.90
2019-06-27T14:12:05.250Z,99.90
2019-06-27T14:14:34.414Z,99.90
2019-06-27T14:17:04.061Z,99.90
2019-06-27T14:19:33.423Z,99.90
2019-06-27T14:22:03.323Z,99.90
2019-06-27T14:24:32.749Z,99.90
2019-06-27T14:27:04.728Z,99.90
2019-06-27T14:29:33.418Z,99.90
2019-06-27T14:32:03.952Z,99.90
2019-06-27T14:34:33.541Z,99.90
2019-06-27T14:37:04.051Z,99.90
2019-06-27T14:39:33.478Z,99.90
2019-06-27T14:42:03.216Z,99.90
2019-06-27T14:44:32.743Z,99.90
2019-06-27T14:47:02.278Z,99.90
2019-06-27T14:49:32.169Z,99.90
2019-06-27T14:52:01.556Z,99.90
2019-06-27T14:54:30.826Z,99.90
2019-06-27T14:57:00.103Z,99.90
2019-06-27T14:59:29.497Z,99.90
2019-06-27T15:01:59.228Z,99.90
2019-06-27T15:04:29.473Z,99.90
2019-06-27T15:07:00.155Z,99.90
2019-06-27T15:09:29.693Z,99.90
2019-06-27T15:11:59.995Z,99.90
2019-06-27T15:14:29.775Z,99.90
2019-06-27T15:16:59.128Z,99.90
2019-06-27T15:19:28.994Z,99.90
2019-06-27T15:21:58.352Z,99.90
2019-06-27T15:24:27.900Z,99.90
2019-06-27T15:26:57.426Z,99.90
2019-06-27T15:29:26.962Z,99.90
2019-06-27T15:31:56.719Z,99.90
2019-06-27T15:34:26.093Z,99.90
2019-06-27T15:36:55.589Z,99.90
2019-06-27T15:39:25.165Z,99.90
2019-06-27T15:41:54.719Z,99.90
2019-06-27T15:44:24.275Z,99.90
2019-06-27T15:46:54.496Z,99.90
2019-06-27T15:49:24.890Z,99.90
2019-06-27T15:51:54.179Z,99.90
2019-06-27T15:54:23.822Z,99.90
2019-06-27T15:56:53.250Z,99.90
2019-06-27T15:59:22.921Z,99.90
2019-06-27T16:01:52.682Z,99.90
2019-06-27T16:04:32.650Z,99.90
2019-06-27T16:06:52.185Z,99.90
2019-06-27T16:09:23.985Z,99.90
2019-06-27T16:11:53.466Z,99.90
2019-06-27T16:14:24.070Z,99.90
2019-06-27T16:16:54.035Z,99.90
2019-06-27T16:19:23.620Z,99.90
2019-06-27T16:21:52.986Z,99.90
2019-06-27T16:24:22.453Z,99.90
2019-06-27T16:26:52.136Z,99.90
2019-06-27T16:29:21.809Z,99.90
2019-06-27T16:31:51.374Z,99.90
2019-06-27T16:34:21.191Z,99.90
2019-06-27T16:36:50.557Z,99.90
2019-06-27T16:39:19.783Z,99.90
2019-06-27T16:41:50.325Z,99.90
2019-06-27T16:44:19.786Z,99.90
2019-06-27T16:46:49.254Z,99.90
2019-06-27T16:49:18.809Z,99.90
2019-06-27T16:51:49.076Z,99.90
2019-06-27T16:54:18.536Z,99.90
2019-06-27T16:56:47.919Z,99.90
2019-06-27T16:59:17.708Z,99.90
2019-06-27T17:01:47.036Z,99.90
2019-06-27T17:04:16.666Z,99.90
2019-06-27T17:06:46.098Z,99.90
2019-06-27T17:09:15.634Z,99.90
2019-06-27T17:11:45.496Z,99.90
2019-06-27T17:14:15.047Z,99.90
2019-06-27T17:16:44.936Z,99.90
2019-06-27T17:19:14.738Z,99.90
2019-06-27T17:21:44.407Z,99.90
2019-06-27T17:24:14.236Z,99.90
2019-06-27T17:26:44.699Z,99.90
2019-06-27T17:29:14.279Z,99.90
2019-06-27T17:31:44.011Z,99.90
2019-06-27T17:34:14.255Z,99.90
2019-06-27T17:36:56.628Z,99.90
2019-06-27T17:39:13.995Z,99.90
2019-06-27T17:41:43.550Z,99.90
2019-06-27T17:44:14.387Z,99.90
2019-06-27T17:46:46.436Z,99.90
2019-06-27T17:49:13.842Z,99.90
2019-06-27T17:51:43.111Z,99.90
2019-06-27T17:54:12.495Z,99.90
2019-06-27T17:56:42.225Z,99.90
2019-06-27T17:59:11.736Z,99.90
2019-06-27T18:01:41.652Z,99.90
2019-06-27T18:04:11.264Z,99.90
2019-06-27T18:06:40.645Z,99.90
2019-06-27T18:09:10.650Z,99.90
2019-06-27T18:11:40.479Z,99.90
2019-06-27T18:14:12.181Z,99.90
2019-06-27T18:16:41.754Z,99.90
2019-06-27T18:19:11.332Z,99.90
2019-06-27T18:21:40.975Z,99.90
2019-06-27T18:24:10.570Z,99.90
2019-06-27T18:26:40.067Z,99.90
2019-06-27T18:29:09.497Z,99.90
2019-06-27T18:31:39.076Z,99.90
2019-06-27T18:34:08.425Z,99.90
2019-06-27T18:36:37.890Z,99.90
2019-06-27T18:39:06.969Z,99.90
2019-06-27T18:41:36.530Z,99.90
2019-06-27T18:44:05.839Z,99.90
2019-06-27T18:46:35.152Z,99.90
2019-06-27T18:49:04.599Z,99.90
2019-06-27T18:51:34.936Z,99.90
2019-06-27T18:54:04.536Z,99.90
2019-06-27T18:56:33.822Z,99.90
2019-06-27T18:59:03.253Z,99.90
2019-06-27T19:01:32.827Z,99.90
2019-06-27T19:04:02.391Z,99.90
2019-06-27T19:06:31.960Z,99.90
2019-06-27T19:09:01.365Z,99.90
2019-06-27T19:11:30.706Z,99.90
2019-06-27T19:14:00.189Z,99.90
2019-06-27T19:16:30.747Z,99.90
2019-06-27T19:19:00.618Z,99.90
2019-06-27T19:21:35.840Z,99.90
2019-06-27T19:24:05.607Z,99.90
2019-06-27T19:26:35.020Z,99.90
2019-06-27T19:29:04.553Z,99.90
2019-06-27T19:31:33.682Z,99.90
2019-06-27T19:34:03.329Z,99.90
2019-06-27T19:36:32.838Z,99.90
2019-06-27T19:39:02.693Z,99.90
2019-06-27T19:41:32.093Z,99.90
2019-06-27T19:44:02.025Z,99.90
2019-06-27T19:46:32.005Z,99.90
2019-06-27T19:49:01.299Z,99.90
2019-06-27T19:51:30.753Z,99.90
2019-06-27T19:54:00.042Z,99.90
2019-06-27T19:56:29.433Z,99.90
2019-06-27T19:58:58.692Z,99.90
2019-06-27T20:01:28.442Z,99.90
2019-06-27T20:03:58.715Z,99.90
2019-06-27T20:06:27.952Z,99.90
2019-06-27T20:08:57.042Z,99.90
2019-06-27T20:11:26.154Z,99.90
2019-06-27T20:13:55.865Z,99.90
2019-06-27T20:16:26.238Z,99.90
2019-06-27T20:18:55.911Z,99.90
2019-06-27T20:21:25.214Z,99.90
2019-06-27T20:23:55.019Z,99.90
2019-06-27T20:26:24.471Z,99.90
2019-06-27T20:28:54.055Z,99.90
2019-06-27T20:31:23.345Z,99.90
2019-06-27T20:33:52.868Z,99.90
2019-06-27T20:36:22.145Z,99.90
2019-06-27T20:38:51.569Z,99.90
2019-06-27T20:41:20.924Z,99.90
2019-06-27T20:43:50.361Z,99.90
2019-06-27T20:46:20.014Z,99.90
2019-06-27T20:48:52.979Z,99.90
2019-06-27T20:51:20.085Z,99.90
2019-06-27T20:53:49.580Z,99.90
2019-06-27T20:56:20.620Z,99.90
2019-06-27T20:58:49.950Z,99.90
2019-06-27T21:01:19.531Z,99.90
2019-06-27T21:03:49.053Z,99.90
2019-06-27T21:06:18.948Z,99.90
2019-06-27T21:08:51.468Z,99.90
2019-06-27T21:11:19.893Z,99.90
2019-06-27T21:13:50.467Z,99.90
2019-06-27T21:16:19.959Z,99.90
2019-06-27T21:18:49.662Z,99.90
2019-06-27T21:21:20.882Z,99.90
2019-06-27T21:23:52.227Z,99.90
2019-06-27T21:26:21.429Z,99.90
2019-06-27T21:28:51.259Z,99.90
2019-06-27T21:31:20.633Z,99.90
2019-06-27T21:33:50.359Z,99.90
2019-06-27T21:36:19.759Z,99.90
2019-06-27T21:38:49.004Z,99.90
2019-06-27T21:41:19.175Z,99.90
2019-06-27T21:43:48.300Z,99.90
2019-06-27T21:46:17.970Z,99.90
2019-06-27T21:48:47.532Z,99.90
2019-06-27T21:51:16.921Z,99.90
2019-06-27T21:53:46.530Z,99.90
2019-06-27T21:56:16.070Z,99.90
2019-06-27T21:58:45.302Z,99.90
2019-06-27T22:01:14.710Z,99.90
2019-06-27T22:03:44.290Z,99.90
2019-06-27T22:06:13.901Z,99.90
2019-06-27T22:08:43.524Z,99.90
2019-06-27T22:11:13.045Z,99.90
2019-06-27T22:13:42.047Z,99.90
2019-06-27T22:16:11.107Z,99.90
2019-06-27T22:18:40.555Z,99.90
2019-06-27T22:21:11.024Z,99.90
2019-06-27T22:23:41.102Z,99.90
2019-06-27T22:26:10.507Z,99.90
2019-06-27T22:28:40.024Z,99.90
2019-06-27T22:31:10.031Z,99.90
2019-06-27T22:33:39.574Z,99.90
2019-06-27T22:36:09.266Z,99.90
2019-06-27T22:38:44.418Z,99.90
2019-06-27T22:41:19.107Z,99.90
2019-06-27T22:43:56.168Z,99.90
2019-06-27T22:46:30.893Z,99.90
2019-06-27T22:49:00.146Z,99.90
2019-06-27T22:51:45.114Z,99.90
2019-06-27T22:54:14.591Z,99.90
2019-06-27T22:56:44.950Z,99.90
2019-06-27T22:59:14.197Z,99.90
2019-06-27T23:01:43.996Z,99.90
2019-06-27T23:04:13.432Z,99.90
2019-06-27T23:06:43.507Z,99.90
2019-06-27T23:09:13.409Z,99.90
2019-06-27T23:11:43.021Z,99.90
2019-06-27T23:14:12.272Z,99.90
2019-06-27T23:16:42.016Z,99.90
2019-06-27T23:19:11.704Z,99.90
2019-06-27T23:21:41.370Z,99.90
2019-06-27T23:24:11.100Z,99.90
2019-06-27T23:26:40.636Z,99.90
2019-06-27T23:29:10.329Z,99.90
2019-06-27T23:31:39.859Z,99.90
2019-06-27T23:34:09.077Z,99.90
2019-06-27T23:36:38.578Z,99.90
2019-06-27T23:39:07.869Z,99.90
2019-06-27T23:41:37.431Z,99.90
2019-06-27T23:44:06.944Z,99.90
2019-06-27T23:46:39.295Z,99.90
2019-06-27T23:49:09.236Z,99.90
2019-06-27T23:51:38.727Z,99.90
2019-06-27T23:54:08.202Z,99.90
2019-06-27T23:56:37.815Z,99.90
2019-06-27T23:59:07.259Z,99.90
